createdAt,value
2018-12-26T00:00:04.257Z,22.37
2018-12-26T00:02:33.250Z,17.53
2018-12-26T00:05:01.985Z,24.63
2018-12-26T00:07:31.053Z,21.07
2018-12-26T00:09:59.762Z,19.70
2018-12-26T00:12:28.749Z,22.80
2018-12-26T00:14:57.482Z,23.37
2018-12-26T00:17:26.220Z,22.30
2018-12-26T00:19:54.964Z,22.60
2018-12-26T00:22:23.729Z,22.60
2018-12-26T00:24:52.477Z,25.00
2018-12-26T00:27:21.188Z,23.53
2018-12-26T00:29:50.654Z,22.60
2018-12-26T00:32:19.856Z,28.80
2018-12-26T00:34:48.845Z,20.17
2018-12-26T00:37:17.861Z,22.37
2018-12-26T00:39:47.996Z,21.20
2018-12-26T00:42:16.923Z,17.17
2018-12-26T00:44:45.629Z,20.67
2018-12-26T00:47:14.371Z,17.93
2018-12-26T00:49:43.077Z,22.63
2018-12-26T00:52:11.813Z,17.40
2018-12-26T00:54:40.554Z,19.00
2018-12-26T00:57:09.285Z,16.83
2018-12-26T00:59:38.181Z,18.90
2018-12-26T01:02:07.445Z,21.73
2018-12-26T01:04:36.220Z,20.00
2018-12-26T01:07:05.189Z,18.00
2018-12-26T01:09:33.960Z,21.73
2018-12-26T01:12:02.737Z,19.07
2018-12-26T01:14:31.448Z,20.57
2018-12-26T01:17:00.437Z,20.30
2018-12-26T01:19:30.221Z,22.23
2018-12-26T01:21:58.936Z,25.27
2018-12-26T01:24:27.902Z,17.10
2018-12-26T01:26:56.862Z,19.13
2018-12-26T01:29:26.324Z,24.50
2018-12-26T01:31:55.077Z,22.47
2018-12-26T01:34:23.829Z,19.00
2018-12-26T01:36:52.556Z,22.37
2018-12-26T01:39:21.529Z,18.97
2018-12-26T01:41:50.253Z,22.87
2018-12-26T01:44:18.969Z,19.60
2018-12-26T01:46:47.697Z,28.10
2018-12-26T01:49:16.666Z,20.90
2018-12-26T01:51:45.892Z,22.73
2018-12-26T01:54:14.610Z,21.30
2018-12-26T01:56:43.405Z,28.27
2018-12-26T01:59:12.602Z,22.57
2018-12-26T02:01:41.570Z,30.60
2018-12-26T02:04:10.376Z,20.33
2018-12-26T02:06:39.193Z,25.87
2018-12-26T02:09:08.593Z,23.90
2018-12-26T02:11:37.333Z,25.67
2018-12-26T02:14:06.045Z,23.13
2018-12-26T02:16:34.797Z,27.83
2018-12-26T02:19:03.510Z,25.30
2018-12-26T02:21:32.471Z,21.40
2018-12-26T02:24:01.702Z,22.63
2018-12-26T02:26:36.427Z,20.73
2018-12-26T02:29:00.860Z,26.27
2018-12-26T02:31:29.852Z,24.53
2018-12-26T02:33:59.088Z,22.30
2018-12-26T02:36:27.809Z,23.27
2018-12-26T02:38:57.033Z,24.43
2018-12-26T02:41:26.278Z,21.47
2018-12-26T02:43:55.021Z,24.07
2018-12-26T02:46:23.857Z,24.53
2018-12-26T02:48:52.629Z,24.63
2018-12-26T02:51:21.372Z,25.87
2018-12-26T02:53:50.350Z,23.87
2018-12-26T02:56:19.410Z,25.33
2018-12-26T02:58:48.357Z,24.10
2018-12-26T03:01:17.218Z,27.07
2018-12-26T03:03:46.005Z,22.87
2018-12-26T03:06:14.723Z,24.10
2018-12-26T03:08:43.449Z,26.80
2018-12-26T03:11:12.467Z,23.77
2018-12-26T03:13:41.202Z,25.43
2018-12-26T03:16:10.281Z,27.13
2018-12-26T03:18:39.314Z,27.17
2018-12-26T03:21:08.108Z,28.70
2018-12-26T03:23:36.832Z,26.30
2018-12-26T03:26:05.688Z,28.27
2018-12-26T03:28:34.409Z,27.87
2018-12-26T03:31:03.382Z,24.33
2018-12-26T03:33:32.194Z,23.07
2018-12-26T03:36:01.190Z,28.87
2018-12-26T03:38:30.201Z,27.23
2018-12-26T03:40:58.969Z,24.40
2018-12-26T03:43:28.343Z,28.57
2018-12-26T03:45:57.271Z,28.63
2018-12-26T03:48:27.024Z,33.80
2018-12-26T03:50:55.754Z,26.60
2018-12-26T03:53:24.754Z,35.60
2018-12-26T03:55:53.830Z,26.50
2018-12-26T03:58:22.793Z,28.57
2018-12-26T04:00:51.837Z,28.23
2018-12-26T04:03:39.780Z,32.07
2018-12-26T04:06:08.876Z,27.27
2018-12-26T04:08:37.861Z,26.63
2018-12-26T04:11:07.122Z,22.63
2018-12-26T04:13:35.838Z,23.40
2018-12-26T04:16:04.740Z,25.40
2018-12-26T04:18:33.705Z,28.17
2018-12-26T04:21:02.533Z,25.17
2018-12-26T04:23:31.329Z,27.80
2018-12-26T04:26:00.066Z,24.30
2018-12-26T04:28:28.806Z,28.13
2018-12-26T04:30:57.791Z,27.83
2018-12-26T04:33:26.821Z,24.80
2018-12-26T04:35:55.807Z,24.20
2018-12-26T04:38:24.827Z,27.97
2018-12-26T04:40:53.834Z,29.03
2018-12-26T04:43:22.825Z,27.13
2018-12-26T04:45:51.804Z,30.63
2018-12-26T04:48:20.527Z,24.70
2018-12-26T04:50:49.500Z,25.00
2018-12-26T04:53:18.249Z,26.50
2018-12-26T04:55:47.212Z,24.83
2018-12-26T04:58:15.963Z,28.50
2018-12-26T05:00:44.702Z,24.40
2018-12-26T05:03:13.657Z,24.20
2018-12-26T05:05:42.395Z,26.80
2018-12-26T05:08:11.356Z,29.80
2018-12-26T05:10:40.152Z,29.37
2018-12-26T05:13:08.997Z,27.30
2018-12-26T05:15:38.250Z,26.80
2018-12-26T05:18:07.534Z,26.90
2018-12-26T05:20:36.547Z,26.53
2018-12-26T05:23:05.912Z,24.73
2018-12-26T05:25:34.812Z,24.10
2018-12-26T05:28:03.555Z,26.67
2018-12-26T05:30:32.260Z,24.47
2018-12-26T05:33:01.076Z,25.93
2018-12-26T05:35:30.126Z,30.23
2018-12-26T05:37:59.100Z,26.67
2018-12-26T05:40:27.862Z,31.93
2018-12-26T05:42:56.901Z,24.10
2018-12-26T05:45:25.987Z,26.27
2018-12-26T05:47:54.917Z,25.37
2018-12-26T05:50:23.894Z,32.70
2018-12-26T05:52:52.596Z,33.73
2018-12-26T05:55:21.325Z,33.67
2018-12-26T05:57:50.032Z,27.07
2018-12-26T06:00:18.778Z,26.07
2018-12-26T06:02:47.809Z,27.00
2018-12-26T06:05:16.608Z,26.23
2018-12-26T06:07:45.599Z,26.27
2018-12-26T06:10:14.664Z,31.87
2018-12-26T06:12:43.374Z,29.03
2018-12-26T06:15:12.399Z,28.77
2018-12-26T06:17:41.569Z,29.70
2018-12-26T06:20:10.320Z,31.90
2018-12-26T06:22:39.314Z,31.90
2018-12-26T06:25:08.041Z,36.53
2018-12-26T06:27:37.249Z,46.50
2018-12-26T06:30:06.124Z,31.03
2018-12-26T06:32:35.129Z,75.77
2018-12-26T06:35:03.917Z,35.97
2018-12-26T06:37:32.739Z,30.57
2018-12-26T06:40:01.971Z,28.57
2018-12-26T06:42:31.193Z,31.53
2018-12-26T06:45:00.011Z,32.20
2018-12-26T06:47:28.996Z,30.70
2018-12-26T06:49:58.209Z,28.30
2018-12-26T06:52:27.194Z,30.93
2018-12-26T06:54:56.153Z,36.87
2018-12-26T06:57:25.368Z,32.23
2018-12-26T06:59:54.130Z,33.43
2018-12-26T07:02:22.940Z,34.40
2018-12-26T07:04:51.692Z,36.33
2018-12-26T07:07:20.650Z,40.77
2018-12-26T07:09:49.617Z,39.30
2018-12-26T07:12:18.338Z,44.50
2018-12-26T07:14:47.070Z,41.13
2018-12-26T07:17:16.062Z,39.33
2018-12-26T07:19:45.050Z,41.70
2018-12-26T07:22:13.764Z,42.83
2018-12-26T07:24:42.503Z,43.73
2018-12-26T07:27:11.227Z,46.00
2018-12-26T07:29:40.173Z,41.80
2018-12-26T07:32:09.176Z,41.43
2018-12-26T07:34:42.141Z,50.70
2018-12-26T07:37:08.857Z,41.43
2018-12-26T07:39:37.577Z,36.73
2018-12-26T07:42:06.425Z,38.50
2018-12-26T07:44:35.211Z,41.30
2018-12-26T07:47:04.278Z,36.90
2018-12-26T07:49:33.225Z,33.80
2018-12-26T07:52:01.970Z,35.87
2018-12-26T07:54:31.328Z,35.47
2018-12-26T07:57:00.047Z,47.10
2018-12-26T07:59:37.380Z,35.40
2018-12-26T08:01:59.736Z,33.47
2018-12-26T08:04:28.721Z,35.13
2018-12-26T08:06:57.712Z,36.47
2018-12-26T08:09:26.490Z,32.60
2018-12-26T08:11:55.208Z,38.40
2018-12-26T08:14:24.167Z,38.03
2018-12-26T08:16:53.429Z,42.33
2018-12-26T08:19:22.273Z,44.30
2018-12-26T08:21:51.497Z,40.40
2018-12-26T08:24:20.456Z,43.97
2018-12-26T08:26:49.439Z,46.23
2018-12-26T08:29:18.439Z,41.77
2018-12-26T08:31:47.150Z,40.27
2018-12-26T08:34:16.389Z,37.20
2018-12-26T08:36:45.454Z,36.73
2018-12-26T08:39:14.443Z,39.70
2018-12-26T08:41:43.154Z,37.77
2018-12-26T08:44:12.180Z,38.97
2018-12-26T08:46:41.129Z,41.50
2018-12-26T08:49:10.348Z,35.30
2018-12-26T08:51:40.819Z,46.33
2018-12-26T08:54:10.009Z,42.13
2018-12-26T08:56:38.728Z,43.30
2018-12-26T08:59:07.437Z,38.97
2018-12-26T09:01:36.450Z,41.50
2018-12-26T09:04:05.456Z,44.27
2018-12-26T09:06:34.199Z,44.43
2018-12-26T09:09:04.724Z,40.80
2018-12-26T09:11:33.460Z,37.47
2018-12-26T09:14:02.253Z,46.67
2018-12-26T09:16:31.212Z,39.87
2018-12-26T09:18:59.916Z,51.27
2018-12-26T09:21:28.921Z,46.63
2018-12-26T09:23:57.861Z,41.50
2018-12-26T09:26:26.668Z,45.03
2018-12-26T09:28:55.412Z,48.63
2018-12-26T09:31:25.437Z,35.90
2018-12-26T09:33:54.189Z,39.73
2018-12-26T09:36:22.910Z,37.00
2018-12-26T09:38:51.897Z,43.67
2018-12-26T09:41:20.601Z,39.27
2018-12-26T09:43:49.632Z,37.10
2018-12-26T09:46:18.361Z,37.50
2018-12-26T09:48:47.073Z,36.30
2018-12-26T09:51:16.042Z,34.57
2018-12-26T09:53:44.750Z,35.57
2018-12-26T09:56:13.745Z,36.37
2018-12-26T09:58:43.461Z,38.90
2018-12-26T10:01:12.214Z,37.00
2018-12-26T10:03:40.962Z,38.60
2018-12-26T10:06:09.678Z,44.30
2018-12-26T10:08:38.651Z,39.23
2018-12-26T10:11:07.637Z,41.83
2018-12-26T10:13:36.584Z,31.60
2018-12-26T10:16:05.394Z,62.67
2018-12-26T10:18:34.349Z,40.07
2018-12-26T10:21:03.331Z,46.33
2018-12-26T10:23:32.357Z,32.33
2018-12-26T10:26:01.584Z,33.97
2018-12-26T10:28:30.402Z,44.03
2018-12-26T10:30:59.656Z,60.03
2018-12-26T10:33:28.476Z,42.97
2018-12-26T10:35:57.191Z,36.77
2018-12-26T10:38:26.740Z,40.97
2018-12-26T10:40:55.454Z,40.50
2018-12-26T10:43:24.188Z,39.93
2018-12-26T10:45:52.931Z,36.33
2018-12-26T10:48:21.667Z,38.50
2018-12-26T10:50:50.393Z,43.23
2018-12-26T10:53:19.382Z,44.20
2018-12-26T10:55:48.360Z,44.70
2018-12-26T10:58:17.101Z,41.37
2018-12-26T11:00:46.050Z,45.83
2018-12-26T11:03:15.048Z,54.53
2018-12-26T11:05:43.761Z,47.83
2018-12-26T11:08:12.828Z,46.30
2018-12-26T11:10:41.789Z,43.27
2018-12-26T11:13:10.509Z,42.23
2018-12-26T11:15:39.490Z,45.80
2018-12-26T11:18:08.392Z,40.67
2018-12-26T11:20:37.607Z,44.03
2018-12-26T11:23:06.638Z,40.23
2018-12-26T11:25:35.360Z,41.90
2018-12-26T11:28:04.064Z,40.60
2018-12-26T11:30:32.805Z,40.70
2018-12-26T11:33:01.554Z,41.87
2018-12-26T11:35:30.332Z,40.80
2018-12-26T11:37:59.076Z,36.97
2018-12-26T11:40:28.132Z,41.47
2018-12-26T11:42:56.874Z,38.00
2018-12-26T11:45:25.621Z,40.33
2018-12-26T11:47:54.436Z,38.20
2018-12-26T11:50:23.140Z,45.30
2018-12-26T11:52:52.618Z,45.97
2018-12-26T11:55:21.654Z,42.90
2018-12-26T11:57:50.408Z,43.33
2018-12-26T12:00:19.140Z,39.67
2018-12-26T12:02:48.210Z,46.33
2018-12-26T12:05:17.086Z,47.13
2018-12-26T12:07:45.977Z,43.40
2018-12-26T12:10:15.293Z,49.53
2018-12-26T12:12:44.053Z,38.87
2018-12-26T12:15:12.768Z,41.20
2018-12-26T12:17:41.796Z,45.57
2018-12-26T12:20:11.006Z,42.57
2018-12-26T12:22:39.965Z,40.10
2018-12-26T12:25:09.026Z,37.50
2018-12-26T12:27:37.736Z,44.70
2018-12-26T12:30:06.828Z,42.33
2018-12-26T12:32:35.577Z,48.93
2018-12-26T12:35:04.670Z,37.37
2018-12-26T12:37:33.758Z,40.37
2018-12-26T12:40:03.251Z,48.40
2018-12-26T12:42:32.094Z,46.77
2018-12-26T12:45:01.329Z,43.00
2018-12-26T12:47:30.151Z,49.50
2018-12-26T12:49:59.010Z,44.53
2018-12-26T12:52:27.709Z,46.90
2018-12-26T12:54:56.496Z,46.10
2018-12-26T12:57:25.235Z,48.23
2018-12-26T12:59:54.141Z,56.53
2018-12-26T13:02:23.417Z,44.20
2018-12-26T13:04:52.189Z,47.63
2018-12-26T13:07:20.929Z,45.93
2018-12-26T13:09:49.881Z,44.93
2018-12-26T13:12:18.916Z,43.60
2018-12-26T13:14:47.656Z,45.83
2018-12-26T13:17:16.604Z,45.00
2018-12-26T13:19:45.338Z,46.33
2018-12-26T13:22:14.339Z,40.83
2018-12-26T13:24:43.072Z,46.90
2018-12-26T13:27:11.804Z,42.67
2018-12-26T13:29:42.176Z,44.60
2018-12-26T13:32:11.068Z,42.13
2018-12-26T13:34:40.041Z,41.37
2018-12-26T13:37:09.007Z,42.40
2018-12-26T13:39:38.192Z,47.10
2018-12-26T13:42:08.235Z,45.07
2018-12-26T13:44:37.193Z,47.27
2018-12-26T13:47:06.012Z,44.63
2018-12-26T13:49:34.976Z,48.40
2018-12-26T13:52:04.197Z,43.97
2018-12-26T13:54:32.916Z,39.40
2018-12-26T13:57:02.137Z,39.27
2018-12-26T13:59:30.846Z,42.37
2018-12-26T14:01:59.586Z,45.70
2018-12-26T14:04:28.341Z,40.53
2018-12-26T14:06:57.057Z,46.63
2018-12-26T14:09:25.809Z,42.57
2018-12-26T14:11:54.525Z,45.00
2018-12-26T14:14:23.286Z,46.63
2018-12-26T14:16:52.069Z,42.23
2018-12-26T14:19:20.823Z,52.20
2018-12-26T14:21:49.591Z,51.27
2018-12-26T14:24:18.320Z,47.03
2018-12-26T14:26:47.321Z,44.63
2018-12-26T14:29:16.070Z,55.93
2018-12-26T14:31:45.261Z,47.77
2018-12-26T14:34:13.962Z,50.60
2018-12-26T14:36:42.708Z,47.30
2018-12-26T14:39:11.672Z,44.87
2018-12-26T14:41:40.389Z,47.20
2018-12-26T14:44:09.151Z,49.47
2018-12-26T14:46:37.876Z,50.13
2018-12-26T14:49:06.866Z,41.73
2018-12-26T14:51:35.705Z,47.97
2018-12-26T14:54:04.420Z,50.10
2018-12-26T14:56:33.237Z,51.17
2018-12-26T14:59:02.324Z,47.47
2018-12-26T15:01:31.067Z,45.10
2018-12-26T15:03:59.857Z,40.60
2018-12-26T15:06:28.628Z,50.97
2018-12-26T15:08:57.386Z,45.50
2018-12-26T15:11:26.625Z,45.20
2018-12-26T15:13:55.408Z,47.17
2018-12-26T15:16:24.149Z,56.53
2018-12-26T15:18:52.889Z,50.43
2018-12-26T15:21:21.873Z,50.23
2018-12-26T15:23:50.847Z,45.00
2018-12-26T15:26:19.855Z,41.83
2018-12-26T15:28:48.612Z,47.10
2018-12-26T15:31:17.352Z,39.93
2018-12-26T15:33:46.332Z,44.47
2018-12-26T15:36:15.040Z,47.03
2018-12-26T15:38:43.992Z,38.67
2018-12-26T15:41:12.703Z,39.60
2018-12-26T15:43:41.413Z,50.93
2018-12-26T15:46:10.133Z,48.83
2018-12-26T15:48:38.869Z,47.00
2018-12-26T15:51:07.620Z,42.30
2018-12-26T15:53:36.620Z,48.60
2018-12-26T15:56:05.589Z,41.77
2018-12-26T15:58:34.317Z,46.63
2018-12-26T16:01:03.036Z,45.03
2018-12-26T16:03:31.769Z,46.13
2018-12-26T16:06:00.581Z,49.47
2018-12-26T16:08:29.311Z,40.73
2018-12-26T16:10:58.024Z,44.37
2018-12-26T16:13:27.002Z,44.13
2018-12-26T16:15:55.966Z,59.97
2018-12-26T16:18:24.678Z,52.30
2018-12-26T16:20:53.662Z,40.57
2018-12-26T16:23:22.401Z,45.67
2018-12-26T16:25:51.437Z,42.77
2018-12-26T16:28:20.229Z,41.83
2018-12-26T16:30:49.516Z,51.80
2018-12-26T16:33:18.497Z,50.57
2018-12-26T16:35:47.210Z,55.07
2018-12-26T16:38:16.001Z,44.03
2018-12-26T16:40:44.748Z,50.03
2018-12-26T16:43:13.706Z,48.47
2018-12-26T16:45:42.450Z,51.20
2018-12-26T16:48:11.206Z,48.30
2018-12-26T16:50:40.174Z,43.37
2018-12-26T16:53:08.885Z,57.40
2018-12-26T16:55:38.158Z,50.00
2018-12-26T16:58:06.866Z,53.23
2018-12-26T17:00:35.845Z,52.67
2018-12-26T17:03:04.816Z,45.73
2018-12-26T17:05:33.561Z,48.20
2018-12-26T17:08:02.593Z,48.53
2018-12-26T17:10:31.700Z,49.23
2018-12-26T17:13:00.423Z,44.23
2018-12-26T17:15:29.405Z,49.10
2018-12-26T17:17:58.125Z,46.83
2018-12-26T17:20:26.851Z,65.27
2018-12-26T17:22:55.848Z,72.13
2018-12-26T17:25:24.589Z,45.50
2018-12-26T17:27:53.557Z,50.77
2018-12-26T17:30:22.603Z,48.53
2018-12-26T17:33:00.375Z,52.63
2018-12-26T17:35:22.529Z,49.57
2018-12-26T17:37:51.582Z,40.30
2018-12-26T17:40:20.309Z,46.53
2018-12-26T17:42:49.515Z,48.63
2018-12-26T17:45:24.777Z,48.47
2018-12-26T17:47:53.520Z,59.80
2018-12-26T17:50:45.637Z,59.87
2018-12-26T17:53:53.904Z,47.93
2018-12-26T17:56:34.432Z,62.63
2018-12-26T17:59:24.694Z,44.47
2018-12-26T18:02:01.547Z,48.17
2018-12-26T18:04:30.271Z,43.67
2018-12-26T18:06:58.977Z,48.70
2018-12-26T18:09:27.715Z,51.23
2018-12-26T18:11:56.454Z,50.40
2018-12-26T18:14:25.189Z,45.83
2018-12-26T18:16:53.954Z,41.23
2018-12-26T18:19:23.136Z,48.20
2018-12-26T18:21:51.964Z,53.63
2018-12-26T18:24:20.928Z,46.87
2018-12-26T18:26:49.793Z,43.50
2018-12-26T18:29:18.553Z,57.00
2018-12-26T18:31:47.260Z,49.73
2018-12-26T18:34:16.266Z,49.87
2018-12-26T18:36:45.322Z,42.93
2018-12-26T18:39:14.032Z,46.33
2018-12-26T18:41:42.986Z,47.10
2018-12-26T18:44:11.965Z,52.43
2018-12-26T18:46:40.716Z,46.53
2018-12-26T18:49:09.713Z,58.37
2018-12-26T18:51:38.459Z,52.00
2018-12-26T18:54:07.207Z,46.00
2018-12-26T18:56:36.155Z,55.03
2018-12-26T18:59:05.106Z,49.10
2018-12-26T19:01:34.114Z,48.20
2018-12-26T19:04:02.823Z,41.10
2018-12-26T19:06:31.814Z,40.13
2018-12-26T19:09:00.554Z,40.47
2018-12-26T19:11:29.552Z,42.10
2018-12-26T19:13:58.493Z,39.10
2018-12-26T19:16:27.453Z,56.03
2018-12-26T19:18:56.216Z,58.70
2018-12-26T19:21:24.980Z,40.80
2018-12-26T19:23:53.688Z,45.33
2018-12-26T19:26:22.477Z,60.50
2018-12-26T19:28:51.193Z,50.50
2018-12-26T19:31:19.916Z,45.50
2018-12-26T19:33:48.925Z,46.00
2018-12-26T19:36:17.709Z,40.50
2018-12-26T19:38:46.677Z,48.10
2018-12-26T19:41:15.672Z,44.50
2018-12-26T19:43:44.431Z,52.80
2018-12-26T19:46:13.225Z,48.30
2018-12-26T19:48:42.433Z,53.90
2018-12-26T19:51:11.210Z,63.10
2018-12-26T19:53:40.204Z,48.40
2018-12-26T19:56:09.001Z,54.80
2018-12-26T19:58:37.709Z,99.50
2018-12-26T20:01:06.460Z,52.43
2018-12-26T20:03:35.170Z,52.33
2018-12-26T20:06:04.145Z,100.20
2018-12-26T20:08:32.961Z,54.93
2018-12-26T20:11:01.718Z,64.77
2018-12-26T20:13:30.980Z,53.40
2018-12-26T20:16:00.207Z,50.97
2018-12-26T20:18:28.937Z,40.40
2018-12-26T20:20:57.657Z,51.17
2018-12-26T20:23:26.662Z,42.90
2018-12-26T20:25:55.382Z,44.37
2018-12-26T20:28:24.367Z,60.97
2018-12-26T20:30:53.086Z,51.10
2018-12-26T20:33:21.814Z,51.00
2018-12-26T20:35:52.486Z,70.20
2018-12-26T20:38:21.502Z,45.80
2018-12-26T20:40:50.737Z,42.87
2018-12-26T20:43:19.473Z,44.67
2018-12-26T20:45:48.477Z,56.90
2018-12-26T20:48:17.213Z,87.23
2018-12-26T20:50:46.261Z,57.10
2018-12-26T20:53:15.112Z,50.03
2018-12-26T20:55:43.859Z,51.90
2018-12-26T20:58:12.600Z,52.23
2018-12-26T21:00:41.316Z,57.93
2018-12-26T21:03:10.034Z,52.57
2018-12-26T21:05:38.996Z,41.93
2018-12-26T21:08:07.974Z,67.33
2018-12-26T21:10:36.829Z,50.40
2018-12-26T21:13:05.809Z,44.83
2018-12-26T21:15:34.550Z,51.23
2018-12-26T21:18:03.580Z,45.47
2018-12-26T21:20:32.325Z,54.87
2018-12-26T21:23:01.296Z,52.70
2018-12-26T21:25:30.133Z,57.03
2018-12-26T21:27:59.109Z,54.80
2018-12-26T21:30:28.177Z,51.33
2018-12-26T21:32:56.956Z,78.57
2018-12-26T21:35:26.009Z,76.67
2018-12-26T21:37:54.984Z,54.57
2018-12-26T21:40:23.737Z,46.93
2018-12-26T21:42:52.742Z,70.50
2018-12-26T21:45:23.698Z,76.27
2018-12-26T21:47:52.037Z,57.97
2018-12-26T21:50:20.786Z,75.20
2018-12-26T21:52:49.557Z,60.90
2018-12-26T21:55:18.501Z,67.70
2018-12-26T21:57:47.490Z,73.37
2018-12-26T22:00:16.292Z,84.57
2018-12-26T22:02:45.021Z,82.77
2018-12-26T22:05:13.816Z,64.97
2018-12-26T22:07:42.965Z,82.63
2018-12-26T22:10:11.946Z,81.70
2018-12-26T22:12:41.242Z,89.60
2018-12-26T22:15:10.001Z,71.17
2018-12-26T22:17:39.005Z,122.10
2018-12-26T22:20:08.289Z,89.83
2018-12-26T22:22:37.262Z,157.70
2018-12-26T22:25:06.167Z,82.43
2018-12-26T22:27:35.256Z,77.53
2018-12-26T22:30:05.225Z,85.73
2018-12-26T22:32:34.293Z,97.03
2018-12-26T22:35:03.413Z,55.60
2018-12-26T22:37:32.164Z,81.20
2018-12-26T22:40:01.207Z,76.70
2018-12-26T22:42:32.958Z,70.40
2018-12-26T22:45:01.963Z,68.93
2018-12-26T22:47:30.734Z,52.70
2018-12-26T22:49:59.818Z,60.10
2018-12-26T22:52:28.953Z,55.00
2018-12-26T22:54:57.686Z,93.20
2018-12-26T22:57:26.645Z,106.50
2018-12-26T22:59:55.380Z,102.37
2018-12-26T23:02:24.246Z,70.90
2018-12-26T23:04:52.962Z,86.87
2018-12-26T23:07:22.721Z,56.73
2018-12-26T23:09:51.673Z,108.17
2018-12-26T23:12:20.672Z,67.23
2018-12-26T23:14:49.466Z,65.17
2018-12-26T23:17:18.426Z,54.50
2018-12-26T23:19:47.410Z,55.17
2018-12-26T23:22:16.925Z,49.00
2018-12-26T23:24:45.900Z,62.00
2018-12-26T23:27:14.639Z,54.97
2018-12-26T23:29:43.396Z,78.80
2018-12-26T23:32:12.121Z,66.70
2018-12-26T23:34:40.825Z,68.27
2018-12-26T23:37:09.657Z,60.60
2018-12-26T23:39:38.657Z,57.87
2018-12-26T23:42:07.381Z,68.30
2018-12-26T23:44:36.140Z,73.50
2018-12-26T23:47:04.971Z,57.33
2018-12-26T23:49:33.681Z,89.60
2018-12-26T23:52:03.486Z,71.93
2018-12-26T23:54:32.292Z,71.20
2018-12-26T23:57:01.032Z,56.90
2018-12-26T23:59:29.840Z,62.53
